• Join FlightAware (Why Join?)
  • Login
  • US Flag 
09:53AM EDT


 

Airport Tracker/Info


-or-


 

Live Flight TrackerFlight Track Log ✈ N36120 ✈ 06-Jul-2013 ✈ KLPR - KPCW

Flight Track Log - Related Links

Times and Time Zones

All times are in EDT time to prevent confusion due to time zone crossing. See the N36120 flight status page for this flight to view local times or setup timezone preferences in your user account.

Time Position Orientation Groundspeed Altitude Reporting Facility
EDT Latitude Longitude Course Direction KTS MPH feet Rate Location/Type
11:01AM 41.3356 -82.1981 360° North 86 99 1,100  Level Cleveland Center
11:01AM 41.3356 -82.1981 303° West 86 99 1,100 600 Level Cleveland Center
11:02AM 41.3519 -82.2317 303° West 104 120 1,900 600 Climbing Cleveland Center
11:02AM 41.3519 -82.2317 303° West 104 120 1,900 360 Level Cleveland Center
11:03AM 41.3811 -82.2353 355° North 94 108 2,300 360 Climbing Cleveland Center
11:03AM 41.3811 -82.2353 355° North 94 108 2,300 180 Level Cleveland Center
11:04AM 41.4061 -82.2358 359° North 93 107 2,500 180 Climbing Cleveland Center
11:04AM 41.4061 -82.2358 359° North 93 107 2,500 300 Level Cleveland Center
11:05AM 41.4244 -82.2614 314° West 99 114 2,800 300 Climbing Cleveland Center
11:05AM 41.4244 -82.2614 314° West 99 114 2,800 360 Level Cleveland Center
11:06AM 41.4408 -82.2867 311° West 92 106 3,200 360 Climbing Cleveland Center
11:06AM 41.4408 -82.2867 311° West 92 106 3,200 -120 Level Cleveland Center
11:07AM 41.4464 -82.3228 282° West 116 133 3,100 -120 Descending Cleveland Center
11:07AM 41.4464 -82.3228 282° West 116 133 3,100 -240 Level Cleveland Center
11:08AM 41.4583 -82.3675 290° West 127 146 2,900 -240 Descending Cleveland Center
11:08AM 41.4583 -82.3675 290° West 127 146 2,900 60 Level Cleveland Center
11:09AM 41.4722 -82.4094 294° West 117 135 3,000 60 Climbing Cleveland Center
11:09AM 41.4722 -82.4094 294° West 117 135 3,000  Level Cleveland Center
11:10AM 41.4819 -82.4539 286° West 121 139 3,000  Level Cleveland Center
11:10AM 41.4819 -82.4539 286° West 121 139 3,000  Level Cleveland Center
11:11AM 41.4978 -82.4989 295° West 123 142 3,000  Level Cleveland Center
11:11AM 41.4978 -82.4989 295° West 123 142 3,000  Level Cleveland Center
11:13AM 41.5117 -82.5381 295° West 124 143 3,000  Level Cleveland Center
11:13AM 41.5117 -82.5381 295° West 124 143 3,000  Level Cleveland Center
11:14AM 41.5256 -82.5800 294° West 124 143 3,000  Level Cleveland Center
11:14AM 41.5256 -82.5800 294° West 124 143 3,000  Level Cleveland Center
11:15AM 41.5394 -82.6222 294° West 121 139 3,000  Level Cleveland Center
11:15AM 41.5394 -82.6222 294° West 121 139 3,000  Level Cleveland Center
11:16AM 41.5367 -82.6692 265° West 115 132 3,000  Level Cleveland Center
11:16AM 41.5367 -82.6692 265° West 115 132 3,000 -840 Level Cleveland Center
11:17AM 41.5336 -82.7136 265° West 122 140 2,200 -840 Descending Cleveland Center
11:17AM 41.5336 -82.7136 265° West 122 140 2,200 -540 Level Cleveland Center
11:18AM 41.5267 -82.7522 257° West 121 139 1,700 -540 Descending Cleveland Center
11:18AM 41.5267 -82.7522 257° West 121 139 1,700  Level Cleveland Center
11:19AM 41.5239 -82.7908 265° West 96 110 1,700  Level Cleveland Center
11:19AM 41.5239 -82.7908 265° West 96 110 1,700 -420 Level Cleveland Center
11:20AM 41.5211 -82.8239 264° West 89 102 1,300 -420 Descending Cleveland Center
11:21AM 41.5163 -82.8695 263° West  Level Estimated
11:28AM 41.5163 -82.8695 83° East  Level Estimated
11:29AM 41.5163 -82.8695 83° East  Level Estimated